Weather History for Newport Airport, OR

Change the Weather History Date:

Wednesday, October 6, 2010

  Actual Average Record
Temperature  
Mean Temperature 60 °F -  
Max Temperature 75 °F 59 °F 75 °F (2010)
Min Temperature 46 °F 48 °F 39 °F (2007)
Degree Days  
Heating Degree Days 4    
Growing Degree Days 10 (Base 50)    
Moisture  
Dew Point 45 °F    
Average Humidity 60    
Maximum Humidity 93    
Minimum Humidity 36    
Precipitation  
Precipitation 0.00 in - - ()
Sea Level Pressure  
Sea Level Pressure 30.01 in    
Wind  
Wind Speed 8 mph (NE)    
Max Wind Speed 18 mph    
Max Gust Speed 26 mph    
Visibility 10 miles    
Events      
Averages and records for this station are not official NWS values.
T = Trace of Precipitation, MM = Missing Value Source: NWS Daily Summary

Daily Weather History Graph

Daily Weather History Graph

Search for Another Location

Airport:

Trip Planner

Search our weather history database for the weather conditions in past years. The results will help you decide how hot, cold, wet, or windy it might be!

Date:

Astronomy

Oct. 06, 2010 Rise Set
Actual Time 7:20 AM PDT 6:47 PM PDT
Civil Twilight 6:51 AM PDT 7:16 PM PDT
Nautical Twilight 6:17 AM PDT 7:50 PM PDT
Astronomical Twilight 5:43 AM PDT 8:24 PM PDT
Moon 6:02 AM PDT (10/6) 5:53 PM PDT (10/6)
Length of Visible Light 12h 25m
Length of Day
11h 27m
Waning Crescent, 1% of the Moon is Illuminated
Oct 6
Waning Crescent
Oct 7
New
Oct 14
First Quarter
Oct 22
Full
Oct 30
Last Quarter

Hourly Weather History & Observations

Time (PDT) Temp. Windchill Dew Point Humidity Pressure Visibility Wind Dir Wind Speed Gust Speed Precip Events Conditions
12:11 AM 51.8 °F - 44.6 °F 76% 30.14 in 10.0 mi NNE 6.9 mph - N/A   Clear
12:31 AM 51.8 °F - 46.4 °F 82% 30.13 in 10.0 mi NE 5.8 mph - N/A   Clear
12:51 AM 48.2 °F - 44.6 °F 87% 30.13 in 10.0 mi ENE 6.9 mph - N/A   Clear
1:11 AM 48.2 °F - 44.6 °F 87% 30.12 in 10.0 mi NNE 4.6 mph - N/A   Clear
1:31 AM 48.2 °F - 44.6 °F 87% 30.11 in 10.0 mi NE 8.1 mph - N/A   Clear
1:51 AM 48.2 °F - 44.6 °F 87% 30.11 in 10.0 mi Calm Calm - N/A   Clear
2:11 AM 46.4 °F 42.9 °F 44.6 °F 93% 30.11 in 10.0 mi NNE 6.9 mph - N/A   Clear
2:31 AM 48.2 °F - 44.6 °F 87% 30.10 in 10.0 mi ENE 6.9 mph - N/A   Clear
2:51 AM 48.2 °F - 44.6 °F 87% 30.10 in 10.0 mi North 5.8 mph - N/A   Clear
3:11 AM 48.2 °F - 44.6 °F 87% 30.08 in 10.0 mi NE 5.8 mph - N/A   Clear
3:31 AM 46.4 °F 44.3 °F 42.8 °F 87% 30.08 in 10.0 mi North 4.6 mph - N/A   Clear
3:51 AM 48.2 °F - 44.6 °F 87% 30.07 in 10.0 mi ENE 3.5 mph - N/A   Clear
4:11 AM 48.2 °F - 44.6 °F 87% 30.07 in 10.0 mi NE 4.6 mph - N/A   Clear
4:31 AM 51.8 °F - 44.6 °F 76% 30.06 in 10.0 mi ENE 8.1 mph - N/A   Clear
4:51 AM 55.4 °F - 44.6 °F 67% 30.06 in 10.0 mi East 10.4 mph - N/A   Clear
5:11 AM 55.4 °F - 44.6 °F 67% 30.05 in 10.0 mi ENE 9.2 mph - N/A   Clear
5:31 AM 53.6 °F - 44.6 °F 72% 30.04 in 10.0 mi ENE 6.9 mph - N/A   Clear
5:51 AM 55.4 °F - 44.6 °F 67% 30.04 in 10.0 mi ENE 13.8 mph - N/A   Clear
6:11 AM 57.2 °F - 44.6 °F 63% 30.03 in 10.0 mi East 12.7 mph 20.7 mph N/A   Clear
6:31 AM 57.2 °F - 44.6 °F 63% 30.03 in 10.0 mi East 11.5 mph - N/A   Clear
6:51 AM 57.2 °F - 44.6 °F 63% 30.02 in 10.0 mi East 13.8 mph - N/A   Clear
7:11 AM 57.2 °F - 44.6 °F 63% 30.02 in 10.0 mi East 13.8 mph - N/A   Clear
7:31 AM 57.2 °F - 44.6 °F 63% 30.01 in 10.0 mi East 11.5 mph 18.4 mph N/A   Clear
7:51 AM 59.0 °F - 42.8 °F 55% 30.01 in 10.0 mi East 15.0 mph 19.6 mph N/A   Clear
8:11 AM 60.8 °F - 42.8 °F 52% 30.01 in 10.0 mi East 12.7 mph 19.6 mph N/A   Clear
8:31 AM 60.8 °F - 42.8 °F 52% 30.00 in 10.0 mi East 16.1 mph 20.7 mph N/A   Clear
8:51 AM 62.6 °F - 42.8 °F 48% 30.00 in 10.0 mi East 13.8 mph - N/A   Clear
9:11 AM 64.4 °F - 42.8 °F 45% 30.00 in 10.0 mi East 17.3 mph 25.3 mph N/A   Clear
9:31 AM 64.4 °F - 42.8 °F 45% 30.00 in 10.0 mi East 18.4 mph 24.2 mph N/A   Clear
9:52 AM 66.2 °F - 42.8 °F 43% 29.99 in 10.0 mi East 18.4 mph 26.5 mph N/A   Clear
10:11 AM 66.2 °F - 44.6 °F 46% 29.99 in 10.0 mi East 16.1 mph 26.5 mph N/A   Clear
10:31 AM 68.0 °F - 44.6 °F 43% 29.99 in 10.0 mi East 16.1 mph 24.2 mph N/A   Clear
10:51 AM 69.8 °F - 44.6 °F 40% 29.98 in 10.0 mi East 18.4 mph 23.0 mph N/A   Clear
11:11 AM 71.6 °F - 46.4 °F 41% 29.98 in 10.0 mi East 8.1 mph 18.4 mph N/A   Clear
11:32 AM 71.6 °F - 46.4 °F 41% 29.98 in 10.0 mi ENE 6.9 mph - N/A   Clear
11:51 AM 73.4 °F - 46.4 °F 38% 29.97 in 10.0 mi ENE 6.9 mph - N/A   Clear
12:11 PM 73.4 °F - 46.4 °F 38% 29.97 in 10.0 mi East 6.9 mph - N/A   Clear
12:31 PM 75.2 °F - 46.4 °F 36% 29.96 in 10.0 mi East 4.6 mph - N/A   Clear
12:52 PM 75.2 °F - 48.2 °F 38% 29.95 in 10.0 mi ENE 5.8 mph - N/A   Clear
1:11 PM 69.8 °F - 48.2 °F 46% 29.95 in 7.0 mi NNW 9.2 mph - N/A   Clear
1:31 PM 68.0 °F - 46.4 °F 46% 29.94 in 10.0 mi NNW 10.4 mph - N/A   Clear
1:51 PM 66.2 °F - 46.4 °F 49% 29.93 in 10.0 mi NNW 11.5 mph - N/A   Clear
2:11 PM 66.2 °F - 44.6 °F 46% 29.93 in 10.0 mi NNW 9.2 mph - N/A   Clear
2:31 PM 66.2 °F - 46.4 °F 49% 29.93 in 10.0 mi NNW 6.9 mph - N/A   Clear
2:51 PM 66.2 °F - 46.4 °F 49% 29.93 in 10.0 mi North 8.1 mph - N/A   Clear
3:11 PM 68.0 °F - 48.2 °F 49% 29.92 in 10.0 mi North 8.1 mph - N/A   Clear
3:31 PM 68.0 °F - 48.2 °F 49% 29.91 in 10.0 mi North 6.9 mph - N/A   Clear
3:51 PM 69.8 °F - 50.0 °F 49% 29.91 in 10.0 mi North 4.6 mph - N/A   Clear
4:11 PM 69.8 °F - 48.2 °F 46% 29.92 in 10.0 mi NW 5.8 mph - N/A   Clear
4:31 PM 64.4 °F - 50.0 °F 59% 29.93 in 10.0 mi SW 3.5 mph - N/A   Clear
4:51 PM 64.4 °F - 50.0 °F 59% 29.93 in 7.0 mi SW 9.2 mph - N/A   Clear
5:11 PM 66.2 °F - 48.2 °F 52% 29.93 in 10.0 mi SSW 12.7 mph - N/A   Clear
5:31 PM 66.2 °F - 48.2 °F 52% 29.93 in 10.0 mi SSW 12.7 mph 18.4 mph N/A   Clear
5:51 PM 66.2 °F - 46.4 °F 49% 29.94 in 10.0 mi SSW 12.7 mph 21.9 mph N/A   Clear
6:11 PM 64.4 °F - 46.4 °F 52% 29.94 in 10.0 mi SW 13.8 mph - N/A   Clear
6:31 PM 62.6 °F - 46.4 °F 55% 29.94 in 10.0 mi SSW 15.0 mph 19.6 mph N/A   Clear
7:11 PM 60.8 °F - 50.0 °F 68% 29.96 in 10.0 mi SSW 16.1 mph 24.2 mph N/A   Clear
7:31 PM 57.2 °F - 51.8 °F 82% 29.96 in 7.0 mi SSW 17.3 mph 24.2 mph N/A   Clear
7:51 PM 57.2 °F - 51.8 °F 82% 29.96 in 7.0 mi SSW 15.0 mph 23.0 mph N/A   Clear
8:11 PM 57.2 °F - 51.8 °F 82% 29.96 in 7.0 mi SSW 15.0 mph 21.9 mph N/A   Clear
8:31 PM 57.2 °F - 51.8 °F 82% 29.96 in 7.0 mi SSW 15.0 mph 21.9 mph N/A   Clear
8:51 PM 57.2 °F - 51.8 °F 82% 29.96 in 7.0 mi SSW 12.7 mph - N/A   Clear
9:11 PM 57.2 °F - 51.8 °F 82% 29.97 in 7.0 mi SW 16.1 mph 20.7 mph N/A   Clear
9:31 PM 55.4 °F - 51.8 °F 88% 29.98 in 7.0 mi SW 16.1 mph 20.7 mph N/A   Clear
9:51 PM 55.4 °F - 51.8 °F 88% 29.98 in 7.0 mi SSW 11.5 mph - N/A   Clear
10:11 PM 55.4 °F - 51.8 °F 88% 29.98 in 7.0 mi South 8.1 mph - N/A   Clear
10:31 PM 55.4 °F - 51.8 °F 88% 29.99 in 7.0 mi SSW 6.9 mph - N/A   Clear
10:51 PM 55.4 °F - 51.8 °F 88% 29.99 in 5.0 mi SSW 13.8 mph 18.4 mph N/A   Clear
11:11 PM 53.6 °F - 51.8 °F 94% 29.99 in 5.0 mi SSW 16.1 mph 21.9 mph N/A   Clear
11:31 PM 55.4 °F - 51.8 °F 88% 29.99 in 7.0 mi SSW 18.4 mph 23.0 mph N/A   Clear
11:51 PM 53.6 °F - 51.8 °F 94% 30.00 in 5.0 mi SSW 19.6 mph 25.3 mph N/A   Clear